Time;durP1;ratioP1;P1;durP2;ratioP2;P2;SDS_P1;SDS_P2;PMS_P1;PMS_P2;Temp;Humidity;BMP_temperature;BMP_pressure;BME280_temperature;BME280_humidity;BME280_pressure;Samples;Min_cycle;Max_cycle;Signal;HPM_P1;HPM_P2
2024/02/08 00:01:44;;;;;;;12.93;4.95;;;3.90;83.50;;;;;;9173691;19;20014;-63
2024/02/08 00:04:52;;;;;;;13.52;5.72;;;3.90;83.50;;;;;;9173339;19;21008;-63
2024/02/08 00:07:58;;;;;;;17.83;5.88;;;3.90;83.60;;;;;;9181350;19;20015;-63
2024/02/08 00:11:06;;;;;;;12.63;5.10;;;3.90;83.60;;;;;;9182890;19;20026;-63
2024/02/08 00:14:14;;;;;;;16.80;5.53;;;3.80;83.50;;;;;;9182946;19;20464;-64
2024/02/08 00:17:22;;;;;;;17.52;5.35;;;3.90;84.10;;;;;;9184859;19;20022;-64
2024/02/08 00:20:28;;;;;;;19.05;6.50;;;3.90;83.60;;;;;;9184481;19;20010;-63
2024/02/08 00:23:36;;;;;;;18.85;6.40;;;3.80;83.50;;;;;;9184552;19;20018;-64
2024/02/08 00:26:42;;;;;;;20.88;7.40;;;3.90;83.60;;;;;;9182862;19;20011;-64
2024/02/08 00:29:52;;;;;;;24.58;7.80;;;3.90;83.60;;;;;;9180617;19;20614;-64
2024/02/08 00:32:58;;;;;;;27.63;8.43;;;3.80;83.60;;;;;;9182254;19;20026;-64
2024/02/08 00:36:09;;;;;;;26.98;7.90;;;3.80;83.60;;;;;;9182183;19;20014;-64
2024/02/08 00:39:15;;;;;;;18.30;8.30;;;3.80;83.60;;;;;;9181849;19;20548;-64
2024/02/08 00:42:22;;;;;;;22.30;8.00;;;3.80;83.70;;;;;;9181397;19;20014;-64
2024/02/08 00:45:30;;;;;;;20.13;7.53;;;3.80;83.80;;;;;;9179617;19;20014;-64
2024/02/08 00:48:43;;;;;;;24.42;8.48;;;3.80;83.70;;;;;;9180770;19;20014;-65
2024/02/08 00:51:49;;;;;;;30.23;10.38;;;3.80;83.60;;;;;;9180776;19;20144;-66
2024/02/08 00:54:56;;;;;;;21.27;7.93;;;3.80;83.70;;;;;;9181416;19;20022;-64
2024/02/08 00:58:02;;;;;;;21.60;7.93;;;3.80;83.60;;;;;;9181515;19;20046;-65
2024/02/08 01:01:12;;;;;;;24.55;8.50;;;3.80;83.80;;;;;;9181241;19;20014;-64
2024/02/08 01:04:21;;;;;;;20.95;8.43;;;3.80;84.50;;;;;;9175380;19;20022;-64
2024/02/08 01:07:31;;;;;;;20.75;8.82;;;3.80;83.80;;;;;;9180368;19;20119;-65
2024/02/08 01:10:37;;;;;;;26.77;8.52;;;3.80;83.80;;;;;;9178237;19;20014;-66
2024/02/08 01:13:45;;;;;;;24.92;9.07;;;3.80;83.80;;;;;;9180154;19;20023;-65
2024/02/08 01:16:54;;;;;;;23.92;9.98;;;3.80;83.80;;;;;;9176963;19;20011;-64
2024/02/08 01:20:02;;;;;;;27.17;10.38;;;3.80;83.80;;;;;;9182020;19;20011;-64
2024/02/08 01:23:08;;;;;;;29.38;11.07;;;3.80;83.80;;;;;;9178795;19;20023;-64
2024/02/08 01:26:16;;;;;;;26.90;12.15;;;3.80;83.80;;;;;;9179900;19;20416;-65
2024/02/08 01:29:24;;;;;;;30.25;12.27;;;3.90;83.90;;;;;;9177122;19;20064;-64
2024/02/08 01:32:34;;;;;;;33.10;13.48;;;3.80;83.90;;;;;;9179666;19;20018;-63
2024/02/08 01:35:40;;;;;;;31.40;12.40;;;3.80;83.90;;;;;;9178973;19;20015;-66
2024/02/08 01:38:48;;;;;;;31.60;12.98;;;3.80;83.90;;;;;;9180587;19;20018;-64
2024/02/08 01:41:53;;;;;;;34.78;14.02;;;3.80;83.90;;;;;;9179786;19;20068;-64
2024/02/08 01:45:32;;;;;;;40.65;15.13;;;3.80;84.00;;;;;;9178456;19;20374;-64
2024/02/08 01:48:44;;;;;;;36.90;14.57;;;3.90;83.50;;;;;;9178681;19;20018;-64
2024/02/08 01:51:59;;;;;;;37.17;16.05;;;3.90;84.00;;;;;;9179622;19;20018;-64
2024/02/08 01:55:07;;;;;;;38.90;15.63;;;3.90;84.10;;;;;;9179052;19;20485;-64
2024/02/08 01:58:14;;;;;;;35.40;16.00;;;3.90;83.90;;;;;;9177563;19;20081;-64
2024/02/08 02:01:22;;;;;;;47.15;16.42;;;3.90;84.00;;;;;;9178835;19;20102;-64
2024/02/08 02:04:34;;;;;;;39.80;13.57;;;3.90;84.00;;;;;;9173874;19;20046;-64
2024/02/08 02:07:39;;;;;;;36.10;13.40;;;3.90;84.00;;;;;;9178211;19;20022;-64
2024/02/08 02:10:55;;;;;;;29.20;12.48;;;3.90;84.00;;;;;;9176235;19;20015;-64
2024/02/08 02:14:01;;;;;;;38.90;13.00;;;3.90;84.10;;;;;;9178534;19;20032;-64
2024/02/08 02:17:13;;;;;;;36.70;11.90;;;3.90;84.10;;;;;;9179050;19;20010;-64
2024/02/08 02:20:24;;;;;;;28.45;11.13;;;3.90;84.10;;;;;;9177851;19;20528;-64
2024/02/08 02:23:34;;;;;;;33.90;11.88;;;3.90;84.00;;;;;;9177638;19;20635;-64
2024/02/08 02:26:40;;;;;;;30.38;11.20;;;3.90;84.20;;;;;;9175473;19;20074;-64
2024/02/08 02:29:53;;;;;;;36.63;12.60;;;3.90;84.10;;;;;;9176584;19;20026;-64
2024/02/08 02:32:59;;;;;;;27.17;12.40;;;3.90;84.20;;;;;;9177287;19;20353;-64
2024/02/08 02:36:08;;;;;;;30.05;11.68;;;3.90;84.20;;;;;;9176995;19;20025;-64
2024/02/08 02:39:25;;;;;;;33.42;12.07;;;3.90;84.20;;;;;;9176211;19;20018;-64
2024/02/08 02:42:35;;;;;;;27.35;11.52;;;3.90;84.10;;;;;;9175832;19;20014;-64
2024/02/08 02:45:40;;;;;;;35.60;11.60;;;3.90;84.10;;;;;;9176599;19;20019;-64
2024/02/08 02:48:48;;;;;;;28.80;11.10;;;3.90;84.10;;;;;;9177061;19;20022;-64
2024/02/08 02:51:54;;;;;;;28.17;10.65;;;3.90;84.10;;;;;;9173118;19;20043;-64
2024/02/08 02:55:09;;;;;;;32.03;11.60;;;3.90;84.20;;;;;;9174447;19;20106;-65
2024/02/08 02:58:15;;;;;;;29.77;11.38;;;3.90;84.10;;;;;;9176322;19;20014;-63
2024/02/08 03:01:26;;;;;;;31.10;12.13;;;3.90;84.30;;;;;;9174531;19;20015;-64
2024/02/08 03:04:32;;;;;;;27.80;11.27;;;3.90;84.20;;;;;;9170801;19;20018;-64
2024/02/08 03:07:42;;;;;;;31.05;12.00;;;3.90;84.20;;;;;;9174928;19;20021;-65
2024/02/08 03:10:50;;;;;;;26.55;12.18;;;3.80;84.10;;;;;;9174724;19;20573;-66
2024/02/08 03:13:58;;;;;;;26.80;10.75;;;3.90;84.20;;;;;;9175832;19;20022;-63
2024/02/08 03:17:04;;;;;;;25.90;10.77;;;3.80;84.10;;;;;;9175821;19;20014;-64
2024/02/08 03:20:16;;;;;;;33.30;11.23;;;3.80;84.20;;;;;;9175242;19;20090;-66
2024/02/08 03:23:24;;;;;;;25.48;10.07;;;3.80;84.20;;;;;;9176124;19;20048;-65
2024/02/08 03:26:34;;;;;;;32.92;10.35;;;3.80;84.20;;;;;;9173785;19;20473;-64
2024/02/08 03:29:41;;;;;;;24.08;9.68;;;3.80;84.30;;;;;;9175262;19;20015;-64
2024/02/08 03:32:53;;;;;;;23.25;10.00;;;3.80;84.20;;;;;;9175011;19;20481;-63
2024/02/08 03:35:59;;;;;;;21.83;9.85;;;3.70;84.20;;;;;;9175184;19;20018;-64
2024/02/08 03:39:08;;;;;;;26.63;10.07;;;3.70;84.10;;;;;;9173869;19;20026;-68
2024/02/08 03:42:17;;;;;;;26.13;9.25;;;3.70;84.10;;;;;;9175108;19;20021;-64
2024/02/08 03:45:27;;;;;;;24.00;8.95;;;3.70;84.10;;;;;;9174282;19;20361;-65
2024/02/08 03:48:33;;;;;;;23.45;9.00;;;3.60;84.00;;;;;;9175394;19;20017;-65
2024/02/08 03:51:41;;;;;;;22.17;9.00;;;3.60;84.10;;;;;;9172724;19;20034;-64
2024/02/08 03:54:46;;;;;;;19.73;7.65;;;3.60;84.10;;;;;;9174701;19;20025;-66
2024/02/08 03:58:00;;;;;;;21.65;6.90;;;3.60;84.20;;;;;;9174825;19;20018;-66
2024/02/08 04:01:08;;;;;;;12.35;6.07;;;3.50;84.10;;;;;;9174482;19;20528;-66
2024/02/08 04:04:16;;;;;;;15.38;6.13;;;3.50;84.20;;;;;;9169280;19;20018;-66
2024/02/08 04:07:34;;;;;;;13.88;5.15;;;3.50;84.10;;;;;;9173643;19;20082;-64
2024/02/08 04:54:11;;;;;;;21.58;5.00;;;3.50;84.40;;;;;;9181346;19;20476;-65
2024/02/08 04:57:19;;;;;;;17.73;5.93;;;3.50;84.40;;;;;;9181613;19;20021;-64
2024/02/08 05:00:27;;;;;;;13.70;5.50;;;3.50;84.50;;;;;;9181941;19;20010;-65
2024/02/08 05:03:39;;;;;;;15.55;5.85;;;3.50;84.40;;;;;;9182200;19;20014;-65
2024/02/08 05:06:45;;;;;;;11.40;4.78;;;3.50;84.50;;;;;;9175145;19;20022;-66
2024/02/08 05:09:53;;;;;;;14.07;5.18;;;3.50;84.50;;;;;;9181244;19;20039;-64
2024/02/08 05:12:58;;;;;;;18.77;5.15;;;3.50;84.40;;;;;;9178025;19;20010;-65
2024/02/08 05:16:06;;;;;;;14.63;4.88;;;3.60;84.50;;;;;;9180753;19;20022;-65
2024/02/08 05:19:14;;;;;;;16.27;4.55;;;3.50;84.50;;;;;;9180681;19;20022;-65
2024/02/08 05:22:22;;;;;;;14.23;4.40;;;3.50;84.40;;;;;;9180153;19;20037;-64
2024/02/08 05:25:28;;;;;;;17.00;5.20;;;3.60;84.50;;;;;;9180181;19;20021;-64
2024/02/08 05:28:36;;;;;;;15.85;4.60;;;3.50;84.40;;;;;;9178675;19;20011;-64
2024/02/08 05:31:42;;;;;;;16.55;4.72;;;3.50;84.60;;;;;;9179329;19;20484;-65
2024/02/08 05:34:53;;;;;;;7.93;4.20;;;3.50;84.40;;;;;;9179553;19;20379;-65
2024/02/08 05:38:01;;;;;;;19.52;4.88;;;3.50;84.50;;;;;;9179492;19;20014;-65
2024/02/08 05:41:09;;;;;;;19.67;4.78;;;3.50;84.40;;;;;;9179878;19;20385;-65
2024/02/08 05:44:15;;;;;;;16.38;4.95;;;3.60;84.50;;;;;;9175932;19;20475;-64
2024/02/08 05:47:26;;;;;;;12.07;5.10;;;3.60;84.60;;;;;;9178637;19;20014;-66
2024/02/08 05:50:35;;;;;;;17.55;5.15;;;3.60;84.60;;;;;;9178841;19;20010;-64
2024/02/08 05:53:43;;;;;;;12.70;4.40;;;3.60;84.50;;;;;;9174646;19;20030;-65
2024/02/08 05:56:49;;;;;;;12.70;3.95;;;3.60;84.60;;;;;;9178131;19;20106;-64
2024/02/08 06:00:10;;;;;;;15.18;4.63;;;3.70;84.70;;;;;;9176988;19;20491;-66
2024/02/08 06:03:27;;;;;;;12.55;4.32;;;3.60;84.70;;;;;;9176357;19;20098;-65
2024/02/08 06:06:51;;;;;;;7.88;3.78;;;3.60;84.70;;;;;;9173426;19;20015;-64
2024/02/08 06:10:07;;;;;;;13.38;4.18;;;3.70;84.80;;;;;;9177106;19;20010;-64
2024/02/08 06:13:16;;;;;;;18.15;4.20;;;3.70;84.70;;;;;;9172738;19;20022;-65
2024/02/08 06:16:45;;;;;;;8.35;3.70;;;3.70;84.70;;;;;;9176348;19;20030;-65
2024/02/08 06:19:53;;;;;;;9.85;4.25;;;3.70;84.70;;;;;;9177813;19;20769;-65
2024/02/08 06:23:16;;;;;;;17.98;5.25;;;3.70;84.70;;;;;;9176387;19;20639;-65
2024/02/08 06:26:32;;;;;;;9.50;3.78;;;3.70;84.70;;;;;;9177187;19;20663;-64
2024/02/08 06:29:49;;;;;;;18.27;4.47;;;3.70;84.70;;;;;;9176543;19;20018;-66
2024/02/08 06:33:07;;;;;;;14.27;4.85;;;3.70;84.60;;;;;;9175356;19;20026;-65
2024/02/08 06:36:22;;;;;;;16.35;4.30;;;3.70;84.60;;;;;;9177563;19;20018;-64
2024/02/08 06:39:44;;;;;;;11.50;3.80;;;3.70;84.70;;;;;;9175780;19;20018;-64
2024/02/08 06:46:18;;;;;;;17.65;4.32;;;3.70;84.70;;;;;;9175345;19;20029;-66
2024/02/08 07:39:34;;;;;;;14.10;5.40;;;3.80;84.70;;;;;;9172781;19;20015;-65
2024/02/08 07:42:44;;;;;;;16.08;4.55;;;3.90;84.80;;;;;;9174480;19;20021;-65
2024/02/08 07:45:55;;;;;;;13.20;4.88;;;3.90;84.80;;;;;;9174807;19;20022;-65
2024/02/08 07:49:04;;;;;;;21.92;4.65;;;3.90;84.80;;;;;;9173945;19;20010;-65
2024/02/08 07:52:19;;;;;;;10.43;4.20;;;3.90;84.70;;;;;;9171477;19;20026;-66
2024/02/08 07:55:47;;;;;;;16.25;4.18;;;3.90;84.80;;;;;;9173838;19;20053;-65
2024/02/08 07:58:56;;;;;;;16.27;5.28;;;3.80;84.70;;;;;;9174011;19;20026;-65
2024/02/08 08:02:12;;;;;;;11.77;3.85;;;3.90;84.80;;;;;;9173647;19;20459;-65
2024/02/08 08:05:23;;;;;;;14.00;4.43;;;3.90;84.70;;;;;;9169192;19;20029;-65
2024/02/08 08:08:32;;;;;;;15.85;5.13;;;3.90;84.80;;;;;;9172305;19;20078;-65
2024/02/08 08:11:45;;;;;;;14.65;4.43;;;3.90;84.80;;;;;;9173256;19;20368;-66
2024/02/08 08:18:23;;;;;;;21.58;7.55;;;3.90;84.70;;;;;;9172167;19;20495;-66
2024/02/08 08:22:03;;;;;;;17.48;6.03;;;3.90;84.70;;;;;;9171577;19;20019;-65
2024/02/08 08:25:28;;;;;;;12.15;4.68;;;3.90;84.80;;;;;;9175453;19;20021;-65
2024/02/08 08:28:51;;;;;;;21.42;7.28;;;3.90;84.70;;;;;;9182087;19;20533;-67
2024/02/08 08:32:53;;;;;;;11.70;4.65;;;4.00;85.40;;;;;;9180827;19;20022;-65
2024/02/08 08:35:37;;;;;;;17.35;5.03;;;3.90;84.80;;;;;;9181678;19;20015;-65
2024/02/08 08:38:45;;;;;;;18.92;5.20;;;4.00;84.80;;;;;;9180851;19;20010;-65
2024/02/08 08:41:48;;;;;;;19.02;5.07;;;4.00;84.70;;;;;;9180457;19;20022;-66
2024/02/08 08:44:59;;;;;;;10.35;4.18;;;4.00;84.80;;;;;;9177999;19;20030;-66
2024/02/08 08:48:07;;;;;;;16.10;4.28;;;4.10;84.90;;;;;;9182646;19;20011;-66
2024/02/08 08:51:23;;;;;;;11.55;4.43;;;4.10;84.90;;;;;;9181716;19;20026;-64
2024/02/08 08:54:29;;;;;;;16.00;4.63;;;4.10;84.90;;;;;;9178518;19;20051;-64
2024/02/08 08:57:37;;;;;;;17.02;4.72;;;4.10;84.90;;;;;;9181766;19;20377;-65
2024/02/08 09:00:46;;;;;;;15.27;5.30;;;4.20;84.90;;;;;;9178163;19;20509;-65
2024/02/08 09:04:09;;;;;;;17.27;4.72;;;4.20;84.80;;;;;;9178080;19;20021;-66
2024/02/08 09:07:19;;;;;;;18.67;4.35;;;4.20;84.80;;;;;;9179900;19;20377;-66
2024/02/08 09:10:34;;;;;;;20.27;4.03;;;4.30;85.00;;;;;;9180687;19;20046;-66
2024/02/08 09:13:42;;;;;;;16.27;3.67;;;4.30;84.90;;;;;;9179443;19;20018;-66
2024/02/08 09:16:57;;;;;;;19.10;4.28;;;4.30;84.80;;;;;;9180105;19;20609;-66
2024/02/08 09:20:19;;;;;;;12.67;4.20;;;4.40;84.90;;;;;;9182562;19;20023;-65
2024/02/08 09:23:32;;;;;;;16.42;4.15;;;4.40;84.90;;;;;;9182842;19;20011;-65
2024/02/08 09:26:48;;;;;;;12.82;4.65;;;4.40;84.80;;;;;;9182933;19;20483;-66
2024/02/08 09:30:08;;;;;;;17.20;4.07;;;4.40;84.80;;;;;;9179164;19;20014;-66
2024/02/08 09:33:30;;;;;;;12.43;4.20;;;4.50;84.90;;;;;;9180561;19;20017;-66
2024/02/08 09:36:38;;;;;;;21.23;4.82;;;4.50;85.40;;;;;;9178917;19;20018;-65
2024/02/08 09:39:58;;;;;;;17.42;4.80;;;4.60;84.90;;;;;;9180685;19;20011;-66
2024/02/08 09:43:16;;;;;;;20.83;4.90;;;4.60;84.90;;;;;;9179321;19;20022;-65
2024/02/08 09:46:49;;;;;;;19.92;5.65;;;4.70;85.00;;;;;;9179695;19;20011;-65
2024/02/08 09:50:00;;;;;;;24.27;4.82;;;4.70;84.90;;;;;;9178945;19;20500;-65
2024/02/08 09:53:15;;;;;;;21.60;4.47;;;4.80;85.10;;;;;;9179102;19;20017;-66
2024/02/08 09:56:29;;;;;;;19.00;5.13;;;4.80;84.90;;;;;;9178816;19;20025;-66
2024/02/08 09:59:59;;;;;;;14.68;4.82;;;4.90;85.00;;;;;;9179081;19;20021;-66
2024/02/08 10:03:31;;;;;;;25.77;6.35;;;4.90;84.90;;;;;;9179471;19;20015;-67
2024/02/08 10:06:45;;;;;;;13.20;5.40;;;5.00;84.90;;;;;;9173804;19;20018;-65
2024/02/08 10:09:59;;;;;;;14.75;5.82;;;5.00;84.80;;;;;;9178318;19;20021;-65
2024/02/08 10:13:14;;;;;;;23.85;6.30;;;5.10;84.90;;;;;;9177428;19;20015;-65
2024/02/08 10:16:29;;;;;;;15.05;5.50;;;5.20;85.00;;;;;;9177434;19;20388;-67
2024/02/08 10:19:47;;;;;;;21.15;6.10;;;5.20;84.90;;;;;;9179085;19;20022;-65
2024/02/08 10:23:00;;;;;;;21.38;5.90;;;5.20;84.70;;;;;;9177960;19;20025;-65
2024/02/08 10:26:22;;;;;;;19.92;5.93;;;5.30;84.90;;;;;;9177325;19;20052;-66
2024/02/08 10:29:33;;;;;;;16.90;5.88;;;5.30;84.80;;;;;;9176711;19;20595;-66
2024/02/08 10:32:38;;;;;;;24.70;6.35;;;5.40;84.80;;;;;;9178244;19;20014;-66
2024/02/08 10:35:47;;;;;;;23.52;5.75;;;5.40;84.80;;;;;;9175358;19;20365;-66
2024/02/08 10:39:03;;;;;;;20.65;6.05;;;5.40;84.80;;;;;;9177494;19;20121;-66
2024/02/08 10:42:14;;;;;;;18.60;5.75;;;5.50;84.70;;;;;;9176854;19;20030;-66
2024/02/08 10:45:25;;;;;;;19.40;5.03;;;5.50;84.60;;;;;;9176931;19;20018;-64
2024/02/08 10:48:33;;;;;;;18.00;5.25;;;5.50;84.60;;;;;;9173199;19;20014;-66
2024/02/08 10:51:43;;;;;;;29.30;6.10;;;5.60;84.70;;;;;;9176877;19;20026;-66
2024/02/08 10:54:51;;;;;;;23.73;6.80;;;5.60;84.60;;;;;;9176072;19;20018;-66
2024/02/08 10:58:20;;;;;;;20.77;6.35;;;5.70;84.50;;;;;;9176679;19;20018;-66
2024/02/08 11:01:37;;;;;;;14.95;5.68;;;5.70;84.50;;;;;;9176084;19;20022;-66
2024/02/08 11:04:46;;;;;;;24.60;6.35;;;5.70;84.50;;;;;;9171913;19;20011;-65
2024/02/08 11:07:53;;;;;;;29.33;7.18;;;5.80;84.60;;;;;;9173768;19;20018;-65
2024/02/08 11:11:09;;;;;;;25.20;6.18;;;5.80;84.50;;;;;;9173772;19;20029;-67
2024/02/08 11:14:20;;;;;;;31.85;6.50;;;5.80;84.50;;;;;;9174271;19;20022;-66
2024/02/08 11:17:32;;;;;;;15.02;5.57;;;5.80;84.40;;;;;;9176438;19;20012;-68
2024/02/08 11:20:44;;;;;;;27.92;6.72;;;5.90;84.50;;;;;;9175550;19;20033;-69
2024/02/08 11:23:53;;;;;;;24.23;6.00;;;5.90;84.40;;;;;;9172468;19;20025;-66
2024/02/08 11:27:02;;;;;;;23.40;6.13;;;6.00;84.50;;;;;;9173933;19;20021;-66
2024/02/08 11:30:11;;;;;;;19.38;5.82;;;6.00;84.40;;;;;;9174966;19;20025;-66
2024/02/08 11:33:40;;;;;;;25.88;6.63;;;6.00;84.40;;;;;;9175364;19;20014;-66
2024/02/08 11:36:58;;;;;;;29.75;6.50;;;6.00;84.30;;;;;;9172400;19;20030;-65
2024/02/08 11:40:11;;;;;;;;;;;6.00;84.20;;;;;;9170299;19;20017;-66
2024/02/08 11:43:26;;;;;;;20.90;5.82;;;6.00;84.20;;;;;;9173692;19;19922;-67
2024/02/08 11:46:37;;;;;;;26.85;6.82;;;6.10;84.40;;;;;;9174009;19;20021;-65
2024/02/08 11:49:53;;;;;;;25.25;6.10;;;6.00;84.20;;;;;;9172190;19;20094;-65
2024/02/08 11:53:04;;;;;;;28.30;6.95;;;6.00;84.20;;;;;;9171317;19;20014;-65
2024/02/08 11:56:11;;;;;;;24.35;6.90;;;6.00;84.20;;;;;;9170320;19;20038;-66
2024/02/08 11:59:20;;;;;;;29.92;7.90;;;6.10;84.20;;;;;;9177113;19;20495;-66
2024/02/08 12:02:27;;;;;;;25.23;7.25;;;6.10;84.20;;;;;;9192598;19;20022;-66
2024/02/08 12:05:38;;;;;;;23.88;6.75;;;6.10;84.20;;;;;;9186744;19;20021;-65
2024/02/08 12:08:57;;;;;;;21.40;7.25;;;6.10;84.20;;;;;;9190360;19;20078;-65
2024/02/08 12:12:07;;;;;;;24.10;6.97;;;6.10;84.80;;;;;;9191548;19;20034;-65
2024/02/08 12:15:13;;;;;;;24.52;7.45;;;6.10;84.00;;;;;;9189871;19;20021;-66
2024/02/08 12:18:26;;;;;;;28.55;7.47;;;6.10;84.00;;;;;;9189238;19;20010;-66
2024/02/08 12:21:37;;;;;;;30.15;7.63;;;6.20;84.10;;;;;;9190587;19;20380;-66
2024/02/08 12:24:44;;;;;;;30.55;7.80;;;6.10;84.00;;;;;;9190672;19;20380;-65
2024/02/08 12:27:52;;;;;;;25.83;7.13;;;6.20;84.00;;;;;;9191230;19;20716;-66
2024/02/08 12:31:01;;;;;;;32.15;8.15;;;6.20;84.00;;;;;;9190280;19;20022;-67
2024/02/08 12:34:08;;;;;;;23.30;7.25;;;6.20;83.90;;;;;;9190924;19;20361;-65
2024/02/08 12:37:22;;;;;;;32.83;7.22;;;6.20;83.90;;;;;;9190567;19;20022;-66
2024/02/08 12:40:32;;;;;;;20.38;6.72;;;6.20;83.90;;;;;;9187739;19;20010;-65
2024/02/08 12:43:42;;;;;;;28.45;7.00;;;6.10;83.90;;;;;;9190361;19;20033;-66
2024/02/08 12:46:49;;;;;;;29.30;7.07;;;6.20;83.90;;;;;;9189601;19;20028;-65
2024/02/08 12:49:57;;;;;;;15.00;5.60;;;6.20;83.80;;;;;;9190077;19;20503;-65
2024/02/08 12:53:21;;;;;;;21.70;7.18;;;6.20;83.80;;;;;;9190503;19;20018;-66
2024/02/08 12:56:28;;;;;;;12.20;4.15;;;6.20;83.80;;;;;;9187528;19;20514;-66
2024/02/08 12:59:34;;;;;;;13.77;4.10;;;6.20;83.70;;;;;;9189095;19;20007;-65
2024/02/08 13:02:42;;;;;;;10.25;3.88;;;6.20;83.70;;;;;;9189388;19;20033;-66
2024/02/08 13:05:50;;;;;;;17.73;4.95;;;6.10;83.60;;;;;;9185530;19;20026;-66
2024/02/08 13:09:25;;;;;;;11.90;3.28;;;6.00;83.70;;;;;;9187331;19;20021;-66
2024/02/08 13:12:32;;;;;;;;;;;6.10;83.60;;;;;;9180045;19;20029;-66
2024/02/08 13:15:41;;;;;;;11.65;3.50;;;6.00;83.70;;;;;;9180050;19;20343;-66
2024/02/08 13:18:59;;;;;;;9.63;3.33;;;6.00;83.50;;;;;;9181003;19;20007;-66
2024/02/08 13:22:08;;;;;;;14.93;3.90;;;6.00;83.60;;;;;;9180154;19;20014;-67
2024/02/08 13:25:16;;;;;;;12.98;3.88;;;5.90;83.50;;;;;;9181312;19;20642;-67
2024/02/08 13:28:25;;;;;;;10.52;4.07;;;5.90;83.60;;;;;;9180242;19;20007;-66
2024/02/08 13:31:31;;;;;;;14.45;5.60;;;5.90;83.60;;;;;;9180097;19;20011;-66
2024/02/08 13:34:40;;;;;;;14.35;4.55;;;5.90;83.60;;;;;;9179698;19;20025;-66
2024/02/08 13:37:46;;;;;;;16.10;3.65;;;5.80;83.60;;;;;;9177010;19;20021;-66
2024/02/08 13:40:58;;;;;;;13.25;3.40;;;5.80;84.10;;;;;;9179695;19;20010;-66
2024/02/08 13:44:05;;;;;;;7.97;3.40;;;5.80;83.50;;;;;;9179992;19;20495;-66
2024/02/08 13:47:13;;;;;;;6.43;3.50;;;5.70;83.50;;;;;;9179547;19;20018;-66
2024/02/08 13:50:30;;;;;;;9.95;3.22;;;5.70;83.50;;;;;;9179366;19;20035;-66
2024/02/08 13:53:41;;;;;;;8.48;3.38;;;5.60;83.40;;;;;;9177128;19;20018;-67
2024/02/08 13:56:52;;;;;;;12.18;3.55;;;5.60;83.50;;;;;;9180046;19;20021;-66
2024/02/08 14:00:03;;;;;;;12.95;3.38;;;5.50;83.60;;;;;;9181638;19;20034;-66
2024/02/08 14:03:16;;;;;;;20.27;3.95;;;5.60;83.60;;;;;;9179320;19;20015;-70
2024/02/08 14:06:29;;;;;;;10.63;3.38;;;5.50;83.80;;;;;;9175370;19;20006;-66
2024/02/08 14:09:40;;;;;;;11.30;3.97;;;5.40;83.50;;;;;;9178550;19;20014;-67
2024/02/08 14:12:58;;;;;;;8.05;2.45;;;5.30;83.50;;;;;;9179812;19;20397;-65
2024/02/08 14:16:13;;;;;;;10.57;2.83;;;5.30;83.50;;;;;;9178036;19;20022;-66
2024/02/08 14:19:33;;;;;;;6.80;2.05;;;5.30;83.60;;;;;;9178828;19;20139;-66
2024/02/08 14:22:39;;;;;;;4.22;1.80;;;5.30;83.60;;;;;;9177561;19;20014;-67
2024/02/08 14:29:08;;;;;;;5.03;2.10;;;5.20;83.60;;;;;;9177322;19;20496;-67
2024/02/08 14:32:36;;;;;;;6.30;2.33;;;5.20;83.50;;;;;;9176560;19;20022;-66
2024/02/08 14:35:42;;;;;;;5.38;2.17;;;5.10;83.60;;;;;;9175519;19;20014;-66
2024/02/08 14:38:49;;;;;;;10.75;2.80;;;5.10;83.70;;;;;;9176442;19;20646;-67
2024/02/08 14:41:55;;;;;;;4.53;1.77;;;5.10;83.80;;;;;;9176312;19;20023;-67
2024/02/08 14:45:11;;;;;;;6.47;1.88;;;5.00;83.70;;;;;;9175744;19;20010;-67
2024/02/08 14:48:18;;;;;;;6.05;2.60;;;4.90;83.50;;;;;;9177505;19;20023;-66
2024/02/08 14:51:36;;;;;;;2.83;1.77;;;4.90;83.60;;;;;;9175597;19;20021;-67
2024/02/08 14:54:42;;;;;;;7.88;2.15;;;4.90;83.70;;;;;;9176763;19;20019;-66
2024/02/08 14:57:52;;;;;;;4.25;1.85;;;4.80;83.60;;;;;;9174981;19;20018;-66
2024/02/08 15:01:08;;;;;;;8.90;2.30;;;4.80;83.50;;;;;;9173770;19;20015;-65
2024/02/08 15:04:16;;;;;;;5.45;1.98;;;4.70;83.60;;;;;;9166462;19;20014;-66
2024/02/08 15:07:47;;;;;;;8.40;2.42;;;4.70;83.80;;;;;;9172465;19;20020;-65
2024/02/08 15:11:02;;;;;;;;;;;4.60;83.70;;;;;;9170747;19;20011;-66
2024/02/08 15:14:14;;;;;;;8.73;1.90;;;4.50;83.70;;;;;;9172942;19;20248;-66
2024/02/08 15:17:27;;;;;;;5.57;1.60;;;4.50;83.60;;;;;;9169991;19;20017;-66
2024/02/08 15:20:43;;;;;;;7.05;2.10;;;4.40;83.70;;;;;;9171598;19;20773;-66
2024/02/08 15:24:04;;;;;;;3.08;1.83;;;4.30;83.60;;;;;;9171489;19;20484;-65
2024/02/08 15:27:18;;;;;;;4.75;1.75;;;4.30;83.70;;;;;;9172233;19;20030;-66
2024/02/08 15:30:36;;;;;;;3.28;2.38;;;4.20;83.80;;;;;;9171730;19;20011;-66
2024/02/08 15:37:28;;;;;;;5.47;2.60;;;4.10;83.70;;;;;;9174224;19;20022;-66
2024/02/08 15:40:31;;;;;;;4.35;2.50;;;4.00;83.80;;;;;;9175107;19;20494;-66
2024/02/08 15:43:39;;;;;;;5.80;2.55;;;4.00;83.80;;;;;;9173893;19;20014;-66
2024/02/08 15:46:45;;;;;;;6.82;2.78;;;3.90;83.90;;;;;;9174912;19;20016;-66
2024/02/08 15:49:56;;;;;;;4.05;2.72;;;3.90;83.90;;;;;;9172556;19;20006;-66
2024/02/08 15:53:08;;;;;;;9.75;3.25;;;3.90;83.90;;;;;;9174312;19;20014;-66
2024/02/08 15:56:19;;;;;;;11.57;3.38;;;3.90;84.00;;;;;;9172896;19;20026;-66
2024/02/08 15:59:27;;;;;;;11.02;3.70;;;3.80;84.00;;;;;;9174107;19;20018;-66
2024/02/08 16:02:35;;;;;;;7.90;3.13;;;3.80;84.10;;;;;;9173340;19;20026;-66
2024/02/08 16:05:46;;;;;;;3.90;2.63;;;3.70;84.10;;;;;;9169352;19;20606;-66
2024/02/08 16:08:56;;;;;;;4.43;2.70;;;3.70;84.10;;;;;;9172073;19;20015;-66
2024/02/08 16:12:22;;;;;;;6.18;2.90;;;3.70;84.10;;;;;;9174090;19;20383;-66
2024/02/08 16:15:49;;;;;;;5.50;3.15;;;3.70;84.20;;;;;;9173524;19;20026;-65
2024/02/08 16:19:22;;;;;;;4.28;2.13;;;3.60;84.20;;;;;;9172383;19;20022;-66
2024/02/08 16:22:37;;;;;;;3.72;2.75;;;3.60;84.40;;;;;;9173617;19;20027;-65
2024/02/08 16:26:05;;;;;;;4.00;1.92;;;3.60;84.30;;;;;;9172368;19;20018;-66
2024/02/08 16:29:19;;;;;;;4.20;2.30;;;3.60;84.30;;;;;;9172914;19;20014;-66
2024/02/08 16:32:32;;;;;;;3.35;1.98;;;3.60;84.50;;;;;;9173304;19;20021;-66
2024/02/08 16:35:58;;;;;;;3.38;2.50;;;3.60;84.50;;;;;;9174199;19;20015;-66
2024/02/08 16:39:21;;;;;;;3.30;2.33;;;3.50;84.50;;;;;;9171524;19;20015;-67
2024/02/08 16:42:34;;;;;;;3.50;2.13;;;3.50;84.60;;;;;;9173020;19;20018;-66
2024/02/08 16:45:44;;;;;;;4.20;2.13;;;3.50;84.70;;;;;;9173547;19;20077;-66
2024/02/08 16:49:00;;;;;;;4.15;2.30;;;3.50;84.60;;;;;;9182353;19;20022;-65
2024/02/08 16:52:07;;;;;;;3.35;2.15;;;3.50;84.90;;;;;;9183737;19;20484;-65
2024/02/08 16:55:22;;;;;;;3.67;2.10;;;3.50;84.70;;;;;;9181461;19;20027;-66
2024/02/08 16:58:32;;;;;;;4.72;2.10;;;3.50;84.80;;;;;;9178980;19;20027;-66
2024/02/08 17:01:52;;;;;;;3.90;2.35;;;3.50;84.70;;;;;;9180884;19;20018;-67
2024/02/08 17:05:09;;;;;;;3.20;2.17;;;3.50;85.40;;;;;;9175512;19;20010;-66
2024/02/08 17:08:20;;;;;;;9.50;2.50;;;3.50;85.00;;;;;;9179037;19;20023;-66
2024/02/08 17:11:33;;;;;;;5.72;2.13;;;3.50;84.80;;;;;;9181703;19;20464;-66
2024/02/08 17:14:46;;;;;;;4.32;2.70;;;3.50;84.90;;;;;;9180244;19;20023;-67
2024/02/08 17:17:57;;;;;;;3.22;2.13;;;3.50;85.60;;;;;;9180027;19;20011;-66
2024/02/08 17:21:13;;;;;;;5.03;2.25;;;3.50;84.80;;;;;;9182651;19;20030;-66
2024/02/08 17:24:37;;;;;;;3.65;2.30;;;3.50;84.90;;;;;;9180471;19;20011;-66
2024/02/08 17:28:06;;;;;;;2.85;2.28;;;3.60;85.00;;;;;;9177515;19;20026;-66
2024/02/08 17:31:21;;;;;;;4.05;2.55;;;3.50;84.90;;;;;;9177307;19;20018;-67
2024/02/08 17:34:29;;;;;;;5.47;2.63;;;3.50;85.10;;;;;;9178441;19;20066;-67
2024/02/08 17:37:37;;;;;;;4.13;2.35;;;3.50;85.00;;;;;;9178076;19;20018;-65
2024/02/08 17:40:45;;;;;;;2.50;2.20;;;3.50;85.00;;;;;;9177924;19;20366;-71
2024/02/08 17:43:54;;;;;;;2.70;2.10;;;3.50;85.10;;;;;;9177327;19;20021;-65
2024/02/08 17:47:07;;;;;;;2.95;2.22;;;3.50;85.10;;;;;;9174259;19;20010;-65
2024/02/08 17:50:29;;;;;;;3.17;2.22;;;3.50;85.10;;;;;;9178209;19;20017;-66
2024/02/08 17:53:44;;;;;;;4.40;2.10;;;3.50;85.10;;;;;;9177577;19;20029;-65
2024/02/08 17:56:51;;;;;;;4.63;2.30;;;3.50;85.10;;;;;;9174585;19;20526;-65
2024/02/08 18:00:01;;;;;;;4.75;2.70;;;3.60;85.10;;;;;;9175443;19;20021;-64
2024/02/08 18:03:15;;;;;;;2.83;2.08;;;3.50;85.10;;;;;;9178500;19;20018;-65
2024/02/08 18:06:23;;;;;;;3.22;2.10;;;3.50;85.20;;;;;;9174820;19;20029;-65
2024/02/08 18:09:37;;;;;;;4.05;1.98;;;3.50;85.20;;;;;;9176879;19;20030;-64
2024/02/08 18:12:53;;;;;;;3.17;2.20;;;3.50;85.90;;;;;;9175886;19;20014;-65
2024/02/08 18:16:09;;;;;;;1.90;1.63;;;3.50;85.90;;;;;;9177742;19;20022;-66
2024/02/08 18:19:32;;;;;;;2.50;2.08;;;3.50;85.90;;;;;;9177286;19;20563;-65
2024/02/08 18:22:41;;;;;;;3.38;2.38;;;3.60;85.20;;;;;;9177209;19;20015;-65
2024/02/08 18:25:51;;;;;;;2.38;1.95;;;3.50;85.20;;;;;;9177931;19;20015;-65
2024/02/08 18:28:56;;;;;;;1.77;1.67;;;3.50;85.30;;;;;;9177692;19;20011;-65